createdAt,value
2017-07-27T00:02:07.923Z,12.80
2017-07-27T00:04:35.734Z,12.90
2017-07-27T00:07:03.615Z,13.04
2017-07-27T00:09:31.325Z,13.07
2017-07-27T00:11:59.068Z,13.06
2017-07-27T00:14:26.782Z,13.09
2017-07-27T00:16:54.607Z,13.15
2017-07-27T00:19:22.476Z,12.97
2017-07-27T00:21:50.231Z,13.03
2017-07-27T00:24:17.991Z,12.78
2017-07-27T00:26:45.798Z,12.90
2017-07-27T00:29:13.503Z,12.97
2017-07-27T00:31:41.233Z,12.86
2017-07-27T00:34:08.919Z,12.87
2017-07-27T00:36:37.568Z,12.90
2017-07-27T00:39:05.303Z,13.00
2017-07-27T00:41:33.016Z,12.84
2017-07-27T00:44:00.798Z,12.82
2017-07-27T00:46:28.528Z,12.76
2017-07-27T00:48:56.316Z,12.76
2017-07-27T00:51:23.989Z,12.77
2017-07-27T00:53:51.833Z,12.80
2017-07-27T00:56:19.605Z,12.78
2017-07-27T00:58:47.342Z,12.79
2017-07-27T01:01:15.092Z,12.77
2017-07-27T01:03:42.812Z,12.79
2017-07-27T01:06:10.604Z,12.82
2017-07-27T01:08:38.318Z,12.80
2017-07-27T01:11:06.013Z,12.74
2017-07-27T01:13:33.756Z,12.76
2017-07-27T01:16:01.507Z,12.81
2017-07-27T01:18:29.217Z,12.79
2017-07-27T01:20:57.162Z,12.89
2017-07-27T01:23:24.871Z,12.83
2017-07-27T01:25:52.577Z,12.80
2017-07-27T01:28:20.373Z,12.92
2017-07-27T01:30:48.071Z,12.83
2017-07-27T01:33:15.788Z,12.86
2017-07-27T01:35:43.645Z,12.77
2017-07-27T01:38:11.353Z,12.77
2017-07-27T01:40:39.206Z,12.81
2017-07-27T01:43:06.993Z,12.80
2017-07-27T01:45:34.693Z,12.82
2017-07-27T01:48:02.506Z,12.88
2017-07-27T01:50:30.244Z,12.84
2017-07-27T01:52:57.937Z,12.82
2017-07-27T01:55:25.735Z,12.87
2017-07-27T01:57:53.467Z,12.85
2017-07-27T02:00:21.260Z,12.87
2017-07-27T02:02:49.417Z,12.88
2017-07-27T02:05:17.128Z,12.91
2017-07-27T02:07:44.916Z,13.02
2017-07-27T02:10:12.700Z,12.93
2017-07-27T02:12:40.408Z,12.92
2017-07-27T02:15:08.168Z,12.92
2017-07-27T02:17:35.925Z,12.92
2017-07-27T02:20:03.699Z,12.90
2017-07-27T02:22:31.392Z,12.93
2017-07-27T02:24:59.114Z,12.81
2017-07-27T02:27:26.887Z,12.86
2017-07-27T02:29:54.600Z,12.94
2017-07-27T02:32:22.354Z,12.93
2017-07-27T02:34:50.094Z,12.96
2017-07-27T02:37:17.798Z,12.96
2017-07-27T02:39:45.773Z,12.94
2017-07-27T02:42:13.493Z,12.92
2017-07-27T02:44:41.322Z,12.94
2017-07-27T02:47:09.072Z,12.85
2017-07-27T02:49:36.830Z,12.81
2017-07-27T02:52:04.688Z,12.83
2017-07-27T02:54:32.446Z,12.89
2017-07-27T02:57:00.144Z,12.92
2017-07-27T02:59:27.943Z,12.92
2017-07-27T03:01:55.673Z,12.90
2017-07-27T03:04:23.485Z,12.92
2017-07-27T03:06:51.160Z,13.00
2017-07-27T03:09:18.923Z,12.99
2017-07-27T03:11:46.624Z,12.97
2017-07-27T03:14:14.610Z,12.91
2017-07-27T03:16:43.265Z,12.92
2017-07-27T03:19:10.986Z,12.94
2017-07-27T03:21:38.720Z,12.94
2017-07-27T03:24:06.472Z,12.95
2017-07-27T03:26:34.219Z,12.92
2017-07-27T03:29:02.050Z,12.92
2017-07-27T03:31:29.831Z,12.88
2017-07-27T03:33:57.527Z,12.91
2017-07-27T03:36:25.304Z,12.91
2017-07-27T03:38:53.051Z,12.94
2017-07-27T03:41:20.819Z,12.95
2017-07-27T03:43:48.615Z,12.92
2017-07-27T03:46:16.686Z,12.90
2017-07-27T03:48:44.429Z,12.81
2017-07-27T03:51:12.142Z,12.77
2017-07-27T03:53:39.882Z,12.80
2017-07-27T03:56:07.762Z,12.75
2017-07-27T03:58:35.487Z,12.65
2017-07-27T04:01:03.250Z,12.64
2017-07-27T04:03:31.026Z,12.77
2017-07-27T04:05:58.724Z,12.65
2017-07-27T04:08:26.595Z,12.63
2017-07-27T04:10:54.309Z,12.72
2017-07-27T04:13:22.016Z,12.82
2017-07-27T04:15:49.746Z,12.78
2017-07-27T04:18:17.545Z,12.79
2017-07-27T04:20:45.225Z,12.77
2017-07-27T04:23:13.034Z,12.69
2017-07-27T04:25:40.841Z,12.61
2017-07-27T04:28:08.593Z,12.70
2017-07-27T04:30:36.299Z,12.76
2017-07-27T04:33:04.080Z,12.67
2017-07-27T04:35:31.928Z,12.52
2017-07-27T04:37:59.620Z,12.62
2017-07-27T04:40:27.498Z,12.66
2017-07-27T04:42:55.192Z,12.74
2017-07-27T04:45:23.031Z,12.71
2017-07-27T04:47:51.241Z,12.61
2017-07-27T04:50:18.941Z,12.68
2017-07-27T04:52:46.640Z,12.68
2017-07-27T04:55:14.427Z,12.69
2017-07-27T04:57:53.805Z,12.69
2017-07-27T05:00:21.742Z,12.73
2017-07-27T05:02:49.447Z,12.74
2017-07-27T05:05:17.157Z,12.69
2017-07-27T05:07:45.401Z,12.76
2017-07-27T05:10:13.197Z,12.81
2017-07-27T05:12:40.902Z,12.79
2017-07-27T05:15:08.682Z,12.82
2017-07-27T05:17:36.458Z,12.85
2017-07-27T05:20:04.189Z,12.85
2017-07-27T05:22:32.057Z,12.84
2017-07-27T05:24:59.767Z,12.86
2017-07-27T05:27:27.556Z,12.88
2017-07-27T05:29:55.364Z,12.90
2017-07-27T05:32:23.048Z,12.96
2017-07-27T05:34:50.814Z,12.88
2017-07-27T05:37:18.649Z,12.84
2017-07-27T05:39:46.846Z,12.85
2017-07-27T05:42:14.637Z,12.88
2017-07-27T05:44:42.404Z,12.88
2017-07-27T05:47:10.253Z,12.92
2017-07-27T05:49:37.993Z,12.91
2017-07-27T05:52:05.867Z,12.96
2017-07-27T05:54:33.613Z,12.96
2017-07-27T05:57:01.344Z,12.93
2017-07-27T05:59:29.118Z,12.90
2017-07-27T06:01:56.867Z,12.89
2017-07-27T06:04:24.697Z,12.83
2017-07-27T06:06:52.492Z,12.88
2017-07-27T06:09:20.171Z,12.96
2017-07-27T06:11:48.040Z,13.09
2017-07-27T06:14:15.781Z,13.04
2017-07-27T06:16:43.533Z,12.88
2017-07-27T06:19:11.356Z,12.78
2017-07-27T06:21:39.075Z,12.77
2017-07-27T06:24:06.914Z,12.81
2017-07-27T06:26:34.640Z,12.87
2017-07-27T06:29:02.471Z,12.87
2017-07-27T06:31:30.351Z,12.75
2017-07-27T06:33:58.134Z,12.78
2017-07-27T06:36:25.917Z,12.83
2017-07-27T06:38:53.706Z,12.90
2017-07-27T06:41:21.526Z,13.05
2017-07-27T06:43:49.331Z,13.13
2017-07-27T06:46:17.356Z,13.19
2017-07-27T06:48:45.048Z,13.25
2017-07-27T06:51:12.835Z,13.40
2017-07-27T06:53:40.546Z,13.44
2017-07-27T06:56:08.370Z,13.43
2017-07-27T06:58:36.178Z,13.49
2017-07-27T07:01:03.947Z,13.73
2017-07-27T07:03:31.704Z,13.70
2017-07-27T07:05:59.417Z,13.83
2017-07-27T07:08:27.159Z,14.01
2017-07-27T07:10:54.972Z,14.53
2017-07-27T07:13:22.706Z,14.89
2017-07-27T07:15:50.530Z,15.99
2017-07-27T07:18:18.231Z,16.65
2017-07-27T07:20:46.013Z,16.51
2017-07-27T07:23:13.752Z,16.71
2017-07-27T07:25:41.565Z,16.44
2017-07-27T07:30:43.156Z,15.90
2017-07-27T07:33:10.990Z,15.94
2017-07-27T07:35:39.509Z,15.82
2017-07-27T07:38:07.316Z,16.01
2017-07-27T07:40:35.247Z,16.21
2017-07-27T07:43:02.935Z,16.11
2017-07-27T07:45:30.705Z,16.16
2017-07-27T07:47:58.437Z,16.32
2017-07-27T07:50:26.129Z,16.46
2017-07-27T07:52:53.920Z,16.54
2017-07-27T07:55:21.644Z,16.52
2017-07-27T07:57:50.040Z,16.83
2017-07-27T08:00:17.819Z,16.95
2017-07-27T08:02:45.720Z,17.01
2017-07-27T08:05:13.424Z,17.31
2017-07-27T08:07:41.219Z,17.03
2017-07-27T08:10:20.595Z,17.25
2017-07-27T08:12:49.004Z,17.52
2017-07-27T08:15:16.740Z,17.83
2017-07-27T08:17:44.556Z,17.59
2017-07-27T08:20:12.331Z,17.68
2017-07-27T08:22:40.041Z,17.96
2017-07-27T08:25:07.745Z,18.00
2017-07-27T08:27:35.690Z,18.18
2017-07-27T08:30:03.450Z,18.03
2017-07-27T08:32:31.338Z,17.91
2017-07-27T08:34:59.057Z,17.92
2017-07-27T08:37:26.832Z,17.83
2017-07-27T08:39:54.596Z,18.01
2017-07-27T08:42:22.350Z,18.33
2017-07-27T08:44:50.179Z,18.32
2017-07-27T08:47:17.892Z,18.43
2017-07-27T08:49:45.869Z,18.36
2017-07-27T08:52:13.697Z,18.32
2017-07-27T08:54:41.486Z,18.16
2017-07-27T08:57:09.229Z,18.05
2017-07-27T08:59:37.071Z,18.39
2017-07-27T09:02:04.812Z,18.34
2017-07-27T09:04:32.657Z,18.36
2017-07-27T09:07:00.443Z,18.65
2017-07-27T09:09:28.157Z,19.06
2017-07-27T09:11:56.562Z,19.18
2017-07-27T09:14:24.347Z,19.42
2017-07-27T09:16:52.114Z,19.75
2017-07-27T09:19:19.818Z,19.70
2017-07-27T09:21:47.815Z,20.03
2017-07-27T09:24:15.797Z,19.86
2017-07-27T09:26:43.968Z,19.67
2017-07-27T09:29:11.932Z,19.70
2017-07-27T09:31:39.690Z,19.75
2017-07-27T09:34:07.481Z,20.41
2017-07-27T09:36:35.188Z,20.88
2017-07-27T09:39:02.951Z,20.98
2017-07-27T09:41:30.740Z,20.11
2017-07-27T09:43:58.454Z,20.36
2017-07-27T09:46:26.281Z,20.02
2017-07-27T09:48:54.023Z,20.33
2017-07-27T09:51:21.795Z,20.26
2017-07-27T09:53:49.531Z,20.27
2017-07-27T09:56:17.238Z,20.17
2017-07-27T09:58:45.020Z,20.23
2017-07-27T10:01:12.735Z,20.48
2017-07-27T10:03:40.490Z,20.53
2017-07-27T10:06:08.306Z,20.72
2017-07-27T10:08:36.058Z,20.80
2017-07-27T10:11:03.839Z,20.94
2017-07-27T10:13:31.544Z,20.85
2017-07-27T10:15:59.273Z,21.00
2017-07-27T10:18:27.053Z,20.85
2017-07-27T10:20:54.736Z,20.94
2017-07-27T10:23:22.569Z,20.99
2017-07-27T10:25:50.495Z,20.90
2017-07-27T10:28:18.364Z,20.87
2017-07-27T10:30:46.128Z,21.00
2017-07-27T10:33:13.837Z,21.17
2017-07-27T10:35:41.603Z,21.30
2017-07-27T10:38:09.345Z,21.43
2017-07-27T10:40:37.085Z,21.51
2017-07-27T10:43:04.856Z,21.32
2017-07-27T10:45:32.612Z,21.39
2017-07-27T10:48:00.333Z,21.20
2017-07-27T10:50:28.084Z,21.04
2017-07-27T10:52:55.776Z,21.18
2017-07-27T10:55:23.565Z,21.50
2017-07-27T10:57:51.320Z,21.62
2017-07-27T11:00:19.350Z,21.56
2017-07-27T11:02:47.100Z,21.66
2017-07-27T11:05:14.843Z,21.52
2017-07-27T11:07:42.630Z,21.60
2017-07-27T11:10:10.422Z,21.43
2017-07-27T11:12:38.105Z,21.41
2017-07-27T11:15:05.816Z,21.40
2017-07-27T11:17:33.575Z,21.60
2017-07-27T11:20:01.449Z,21.85
2017-07-27T11:22:29.154Z,21.39
2017-07-27T11:24:56.863Z,21.45
2017-07-27T11:27:24.627Z,20.92
2017-07-27T11:29:52.432Z,21.08
2017-07-27T11:32:20.388Z,21.09
2017-07-27T11:34:48.169Z,21.12
2017-07-27T11:37:15.968Z,20.84
2017-07-27T11:39:43.799Z,20.80
2017-07-27T11:42:11.729Z,20.88
2017-07-27T11:44:39.453Z,21.05
2017-07-27T11:47:07.264Z,20.99
2017-07-27T11:49:34.995Z,21.17
2017-07-27T11:52:02.859Z,21.16
2017-07-27T11:54:30.643Z,21.22
2017-07-27T11:56:58.461Z,21.27
2017-07-27T11:59:26.248Z,21.17
2017-07-27T12:01:54.025Z,21.09
2017-07-27T12:04:21.800Z,21.04
2017-07-27T12:06:49.500Z,21.10
2017-07-27T12:09:17.257Z,21.09
2017-07-27T12:11:45.022Z,21.46
2017-07-27T12:14:12.764Z,21.61
2017-07-27T12:16:40.565Z,21.40
2017-07-27T12:19:08.327Z,21.53
2017-07-27T12:21:36.132Z,21.21
2017-07-27T12:24:03.860Z,21.05
2017-07-27T12:26:31.644Z,20.95
2017-07-27T12:28:59.389Z,20.92
2017-07-27T12:31:27.099Z,20.96
2017-07-27T12:33:54.881Z,21.16
2017-07-27T12:36:22.607Z,21.15
2017-07-27T12:38:50.395Z,21.15
2017-07-27T12:41:18.180Z,21.24
2017-07-27T12:43:46.061Z,21.24
2017-07-27T12:46:13.767Z,21.33
2017-07-27T12:48:42.688Z,21.49
2017-07-27T12:51:10.450Z,21.56
2017-07-27T12:53:38.152Z,21.52
2017-07-27T12:56:05.929Z,21.64
2017-07-27T12:58:33.764Z,21.46
2017-07-27T13:01:01.492Z,21.56
2017-07-27T13:03:29.285Z,21.51
2017-07-27T13:05:56.973Z,21.35
2017-07-27T13:08:24.811Z,21.30
2017-07-27T13:10:52.591Z,21.39
2017-07-27T13:13:20.723Z,21.48
2017-07-27T13:15:48.632Z,21.72
2017-07-27T13:18:16.357Z,21.78
2017-07-27T13:20:44.111Z,22.06
2017-07-27T13:23:11.963Z,22.07
2017-07-27T13:25:39.776Z,22.15
2017-07-27T13:28:07.488Z,22.17
2017-07-27T13:30:35.218Z,22.27
2017-07-27T13:33:03.003Z,22.39
2017-07-27T13:35:30.684Z,22.27
2017-07-27T13:37:58.576Z,22.04
2017-07-27T13:40:26.412Z,21.95
2017-07-27T13:42:54.103Z,21.91
2017-07-27T13:45:21.878Z,21.77
2017-07-27T13:47:49.586Z,21.65
2017-07-27T13:50:17.676Z,21.74
2017-07-27T13:52:45.444Z,21.49
2017-07-27T13:55:13.226Z,21.53
2017-07-27T13:57:41.059Z,21.49
2017-07-27T14:00:08.855Z,21.46
2017-07-27T14:02:36.638Z,21.31
2017-07-27T14:05:04.432Z,21.40
2017-07-27T14:07:32.152Z,21.41
2017-07-27T14:09:59.913Z,21.17
2017-07-27T14:12:27.718Z,21.14
2017-07-27T14:14:55.406Z,21.13
2017-07-27T14:17:23.141Z,21.15
2017-07-27T14:19:50.827Z,20.99
2017-07-27T14:22:18.664Z,20.98
2017-07-27T14:24:46.462Z,21.00
2017-07-27T14:27:14.213Z,21.03
2017-07-27T14:29:41.940Z,21.01
2017-07-27T14:32:09.652Z,20.94
2017-07-27T14:34:37.419Z,20.87
2017-07-27T14:37:05.156Z,20.91
2017-07-27T14:39:33.186Z,20.80
2017-07-27T14:42:00.929Z,20.82
2017-07-27T14:44:29.127Z,21.10
2017-07-27T14:46:56.998Z,20.95
2017-07-27T14:49:25.636Z,20.89
2017-07-27T14:51:53.362Z,21.06
2017-07-27T14:54:22.786Z,21.09
2017-07-27T14:56:50.808Z,21.10
2017-07-27T14:59:18.566Z,21.20
2017-07-27T15:01:46.399Z,21.08
2017-07-27T15:04:14.214Z,20.91
2017-07-27T15:06:41.957Z,20.81
2017-07-27T15:09:09.765Z,20.69
2017-07-27T15:11:37.553Z,20.65
2017-07-27T15:14:05.304Z,20.59
2017-07-27T15:16:33.140Z,20.31
2017-07-27T15:19:01.048Z,20.28
2017-07-27T15:21:28.768Z,20.12
2017-07-27T15:23:57.354Z,20.11
2017-07-27T15:26:28.845Z,20.18
2017-07-27T15:28:56.695Z,20.05
2017-07-27T15:31:24.481Z,20.02
2017-07-27T15:33:52.477Z,19.88
2017-07-27T15:36:20.158Z,19.94
2017-07-27T15:38:47.937Z,19.94
2017-07-27T15:41:15.653Z,19.96
2017-07-27T15:43:43.413Z,19.73
2017-07-27T15:46:11.208Z,19.84
2017-07-27T15:48:38.979Z,19.75
2017-07-27T15:51:06.925Z,19.83
2017-07-27T15:53:34.629Z,19.76
2017-07-27T15:56:02.419Z,19.69
2017-07-27T15:58:30.248Z,19.76
2017-07-27T16:00:57.951Z,19.78
2017-07-27T16:03:25.804Z,19.63
2017-07-27T16:05:53.572Z,19.77
2017-07-27T16:08:22.942Z,19.86
2017-07-27T16:10:51.109Z,19.73
2017-07-27T16:13:18.860Z,19.77
2017-07-27T16:15:47.286Z,19.78
2017-07-27T16:18:15.152Z,19.78
2017-07-27T16:20:45.266Z,19.72
2017-07-27T16:23:13.112Z,19.57
2017-07-27T16:25:40.889Z,19.42
2017-07-27T16:28:08.638Z,19.42
2017-07-27T16:30:36.394Z,19.41
2017-07-27T16:33:04.148Z,19.42
2017-07-27T16:35:31.947Z,19.07
2017-07-27T16:37:59.730Z,18.96
2017-07-27T16:40:27.660Z,19.07
2017-07-27T16:42:55.434Z,19.04
2017-07-27T16:45:23.248Z,18.97
2017-07-27T16:47:50.967Z,19.03
2017-07-27T16:50:18.744Z,18.97
2017-07-27T16:52:46.534Z,18.95
2017-07-27T16:55:14.434Z,18.90
2017-07-27T16:57:42.267Z,18.79
2017-07-27T17:00:10.657Z,18.91
2017-07-27T17:02:38.478Z,18.77
2017-07-27T17:05:06.445Z,18.73
2017-07-27T17:07:34.213Z,18.83
2017-07-27T17:10:01.986Z,18.75
2017-07-27T17:12:29.730Z,18.87
2017-07-27T17:14:57.580Z,18.74
2017-07-27T17:17:26.351Z,18.74
2017-07-27T17:19:54.160Z,18.67
2017-07-27T17:22:22.135Z,18.55
2017-07-27T17:24:50.005Z,18.60
2017-07-27T17:27:18.058Z,18.61
2017-07-27T17:29:46.338Z,18.75
2017-07-27T17:32:14.111Z,18.81
2017-07-27T17:34:41.893Z,18.76
2017-07-27T17:37:09.826Z,18.70
2017-07-27T17:39:37.609Z,18.74
2017-07-27T17:42:05.650Z,18.58
2017-07-27T17:44:34.755Z,18.54
2017-07-27T17:47:11.596Z,18.51
2017-07-27T17:49:40.055Z,18.44
2017-07-27T17:52:09.083Z,18.43
2017-07-27T17:54:38.186Z,18.39
2017-07-27T17:57:06.089Z,18.35
2017-07-27T17:59:33.950Z,18.36
2017-07-27T18:02:03.347Z,18.24
2017-07-27T18:04:31.889Z,18.25
2017-07-27T18:07:00.151Z,18.25
2017-07-27T18:09:28.964Z,18.20
2017-07-27T18:11:57.895Z,18.01
2017-07-27T18:14:27.096Z,18.14
2017-07-27T18:16:55.021Z,18.11
2017-07-27T18:19:23.256Z,18.06
2017-07-27T18:21:52.791Z,17.95
2017-07-27T18:24:21.542Z,17.89
2017-07-27T18:26:51.828Z,17.89
2017-07-27T18:29:21.254Z,17.82
2017-07-27T18:31:49.398Z,17.82
2017-07-27T18:34:18.718Z,17.85
2017-07-27T18:36:47.627Z,17.78
2017-07-27T18:39:15.742Z,17.83
2017-07-27T18:41:44.112Z,17.74
2017-07-27T18:44:12.021Z,17.76
2017-07-27T18:46:39.959Z,17.72
2017-07-27T18:49:07.739Z,17.69
2017-07-27T18:51:35.566Z,17.85
2017-07-27T18:54:03.533Z,17.93
2017-07-27T18:56:31.471Z,17.92
2017-07-27T18:58:59.379Z,17.93
2017-07-27T19:01:27.670Z,17.92
2017-07-27T19:03:56.533Z,17.91
2017-07-27T19:06:25.020Z,17.89
2017-07-27T19:08:53.278Z,17.92
2017-07-27T19:11:22.999Z,17.79
2017-07-27T19:13:52.297Z,17.78
2017-07-27T19:16:21.457Z,17.70
2017-07-27T19:18:50.508Z,17.59
2017-07-27T19:21:18.422Z,17.58
2017-07-27T19:23:47.158Z,17.54
2017-07-27T19:26:14.962Z,17.48
2017-07-27T19:28:42.742Z,17.49
2017-07-27T19:31:10.508Z,17.55
2017-07-27T19:33:38.451Z,17.53
2017-07-27T19:36:06.243Z,17.42
2017-07-27T19:38:34.176Z,17.27
2017-07-27T19:41:01.981Z,17.23
2017-07-27T19:43:29.696Z,17.19
2017-07-27T19:45:57.730Z,17.18
2017-07-27T19:48:25.665Z,17.09
2017-07-27T19:50:53.719Z,17.08
2017-07-27T19:53:21.461Z,17.06
2017-07-27T19:55:49.259Z,17.04
2017-07-27T19:58:17.143Z,17.08
2017-07-27T20:00:50.814Z,17.11
2017-07-27T20:03:19.595Z,17.10
2017-07-27T20:05:47.427Z,17.04
2017-07-27T20:08:15.316Z,16.95
2017-07-27T20:10:43.354Z,16.92
2017-07-27T20:13:11.354Z,16.70
2017-07-27T20:15:39.273Z,16.66
2017-07-27T20:18:07.092Z,16.75
2017-07-27T20:20:34.995Z,16.49
2017-07-27T20:23:02.800Z,16.48
2017-07-27T20:25:30.781Z,16.28
2017-07-27T20:27:58.704Z,16.37
2017-07-27T20:30:26.712Z,16.31
2017-07-27T20:32:54.604Z,16.38
2017-07-27T20:35:22.488Z,16.12
2017-07-27T20:37:50.372Z,16.01
2017-07-27T20:40:18.289Z,16.05
2017-07-27T20:42:46.955Z,16.02
2017-07-27T20:45:14.916Z,16.05
2017-07-27T20:47:42.801Z,15.95
2017-07-27T20:50:10.829Z,15.89
2017-07-27T20:52:39.403Z,15.87
2017-07-27T20:55:07.324Z,15.95
2017-07-27T20:57:35.402Z,15.89
2017-07-27T21:00:03.155Z,15.89
2017-07-27T21:02:30.934Z,15.95
2017-07-27T21:04:58.756Z,15.88
2017-07-27T21:07:26.581Z,15.75
2017-07-27T21:09:54.446Z,15.86
2017-07-27T21:12:22.414Z,15.70
2017-07-27T21:14:50.301Z,15.70
2017-07-27T21:17:18.006Z,15.62
2017-07-27T21:19:45.967Z,15.69
2017-07-27T21:22:13.928Z,15.76
2017-07-27T21:24:41.773Z,15.73
2017-07-27T21:27:09.499Z,15.72
2017-07-27T21:29:37.378Z,15.71
2017-07-27T21:32:05.733Z,15.62
2017-07-27T21:34:33.587Z,15.60
2017-07-27T21:37:01.442Z,15.52
2017-07-27T21:39:29.391Z,15.49
2017-07-27T21:41:57.244Z,15.51
2017-07-27T21:44:25.086Z,15.55
2017-07-27T21:46:53.049Z,15.49
2017-07-27T21:49:20.889Z,15.41
2017-07-27T21:51:48.629Z,15.37
2017-07-27T21:54:16.445Z,15.49
2017-07-27T21:56:44.237Z,15.37
2017-07-27T21:59:12.037Z,15.35
2017-07-27T22:01:39.815Z,15.40
2017-07-27T22:04:07.717Z,15.43
2017-07-27T22:06:35.701Z,15.39
2017-07-27T22:09:03.595Z,15.41
2017-07-27T22:11:31.444Z,15.31
2017-07-27T22:13:59.357Z,15.24
2017-07-27T22:16:27.168Z,15.29
2017-07-27T22:18:54.993Z,15.35
2017-07-27T22:21:23.840Z,15.26
2017-07-27T22:23:52.834Z,15.20
2017-07-27T22:26:21.556Z,15.14
2017-07-27T22:28:50.124Z,15.17
2017-07-27T22:31:18.154Z,15.15
2017-07-27T22:33:46.070Z,15.02
2017-07-27T22:36:13.811Z,14.98
2017-07-27T22:38:41.575Z,15.03
2017-07-27T22:41:09.527Z,14.99
2017-07-27T22:43:37.441Z,14.99
2017-07-27T22:46:05.600Z,14.86
2017-07-27T22:48:33.336Z,14.69
2017-07-27T22:51:01.179Z,14.83
2017-07-27T22:53:29.100Z,14.78
2017-07-27T22:55:56.853Z,14.66
2017-07-27T22:58:24.776Z,14.76
2017-07-27T23:00:52.686Z,14.73
2017-07-27T23:03:20.628Z,14.77
2017-07-27T23:05:48.529Z,14.77
2017-07-27T23:08:16.231Z,14.55
2017-07-27T23:10:43.928Z,14.63
2017-07-27T23:13:11.888Z,14.65
2017-07-27T23:15:39.641Z,14.75
2017-07-27T23:18:07.492Z,14.70
2017-07-27T23:20:35.301Z,14.72
2017-07-27T23:23:03.339Z,14.69
2017-07-27T23:25:31.152Z,14.47
2017-07-27T23:27:58.959Z,14.50
2017-07-27T23:30:26.846Z,14.51
2017-07-27T23:32:54.578Z,14.57
2017-07-27T23:35:22.533Z,14.58
2017-07-27T23:37:50.368Z,14.56
2017-07-27T23:40:18.195Z,14.66
2017-07-27T23:42:46.079Z,14.62
2017-07-27T23:45:13.849Z,14.66
2017-07-27T23:47:41.631Z,14.59
2017-07-27T23:50:09.565Z,14.50
2017-07-27T23:52:37.409Z,14.48
2017-07-27T23:55:05.336Z,14.47
2017-07-27T23:57:33.293Z,14.41
